Time;durP1;ratioP1;P1;durP2;ratioP2;P2;SDS_P1;SDS_P2;PMS_P1;PMS_P2;Temp;Humidity;BMP_temperature;BMP_pressure;BME280_temperature;BME280_humidity;BME280_pressure;Samples;Min_cycle;Max_cycle;Signal;HPM_P1;HPM_P2
2022/06/15 00:02:09;;;;;;;4.65;2.47;;;9.10;99.90;;;;;;4434521;28;657377;-64
2022/06/15 00:04:56;;;;;;;7.53;2.70;;;9.00;99.90;;;;;;4407129;28;656772;-64
2022/06/15 00:07:43;;;;;;;5.07;2.70;;;9.00;99.90;;;;;;4428741;28;657447;-64
2022/06/15 00:10:30;;;;;;;6.47;2.77;;;8.90;99.90;;;;;;4412446;28;656310;-64
2022/06/15 00:13:17;;;;;;;7.57;2.97;;;8.80;99.90;;;;;;4433462;28;657283;-64
2022/06/15 00:16:05;;;;;;;7.93;2.63;;;8.70;99.90;;;;;;4427494;28;658467;-64
2022/06/15 00:18:53;;;;;;;8.53;2.83;;;8.60;99.90;;;;;;4402056;28;657760;-64
2022/06/15 00:21:40;;;;;;;12.73;2.93;;;8.60;99.90;;;;;;4404365;28;656951;-64
2022/06/15 00:24:28;;;;;;;6.10;2.70;;;8.60;99.90;;;;;;4422286;28;658556;-64
2022/06/15 00:27:15;;;;;;;9.50;2.60;;;8.60;99.90;;;;;;4418304;28;658117;-64
2022/06/15 00:30:02;;;;;;;8.73;3.00;;;8.50;99.90;;;;;;4425654;28;657153;-64
2022/06/15 00:32:49;;;;;;;6.10;3.00;;;8.50;99.90;;;;;;4413280;28;657032;-64
2022/06/15 00:35:38;;;;;;;14.63;4.63;;;8.50;99.90;;;;;;4405602;28;656474;-64
2022/06/15 00:38:26;;;;;;;14.27;2.60;;;8.20;99.90;;;;;;4404203;28;657633;-64
2022/06/15 00:41:14;;;;;;;5.57;2.80;;;8.10;99.90;;;;;;4429269;28;657660;-64
2022/06/15 00:44:02;;;;;;;6.33;2.70;;;7.90;99.90;;;;;;4404925;28;657580;-64
2022/06/15 00:46:50;;;;;;;8.60;2.60;;;7.80;99.90;;;;;;4427135;28;656630;-64
2022/06/15 00:49:38;;;;;;;9.70;3.33;;;7.70;99.90;;;;;;4400587;28;657201;-64
2022/06/15 00:52:32;;;;;;;10.20;3.00;;;7.50;99.90;;;;;;4403968;28;656849;-64
2022/06/15 00:55:22;;;;;;;5.93;3.00;;;7.50;99.90;;;;;;4426966;28;657668;-64
2022/06/15 00:58:09;;;;;;;8.93;2.90;;;7.40;99.90;;;;;;4427455;28;656400;-64
2022/06/15 01:00:56;;;;;;;7.27;2.90;;;7.40;99.90;;;;;;4404940;28;657702;-65
2022/06/15 01:03:44;;;;;;;7.13;3.00;;;7.40;99.90;;;;;;4422450;28;656472;-65
2022/06/15 01:06:36;;;;;;;5.70;3.30;;;7.30;99.90;;;;;;4405999;28;656810;-65
2022/06/15 01:09:25;;;;;;;6.57;3.10;;;7.30;99.90;;;;;;4394733;28;657238;-64
2022/06/15 01:12:15;;;;;;;11.30;3.50;;;7.30;99.90;;;;;;4400825;28;657577;-65
2022/06/15 01:15:14;;;;;;;11.53;3.70;;;7.30;99.90;;;;;;4398102;28;657315;-65
2022/06/15 01:18:09;;;;;;;6.93;3.17;;;7.30;99.90;;;;;;4397865;28;657514;-65
2022/06/15 01:21:11;;;;;;;7.57;2.90;;;7.10;99.90;;;;;;4400289;28;656826;-65
2022/06/15 01:24:45;;;;;;;9.13;3.10;;;7.10;99.90;;;;;;4397593;28;656643;-65
2022/06/15 01:27:50;;;;;;;6.65;3.17;;;7.00;99.90;;;;;;4400925;28;656942;-65
2022/06/15 01:30:43;;;;;;;10.77;3.13;;;7.10;99.90;;;;;;4373296;28;656881;-65
2022/06/15 01:33:33;;;;;;;9.97;3.00;;;7.20;99.90;;;;;;4388612;28;657274;-65
2022/06/15 01:36:24;;;;;;;7.87;2.97;;;7.00;99.90;;;;;;4397774;28;656569;-65
2022/06/15 01:39:12;;;;;;;10.40;3.03;;;7.00;99.90;;;;;;4395490;28;656670;-65
2022/06/15 01:42:04;;;;;;;5.83;3.00;;;6.90;99.90;;;;;;4422147;28;657260;-66
2022/06/15 01:44:53;;;;;;;7.47;3.47;;;6.90;99.90;;;;;;4403662;28;656533;-65
2022/06/15 01:47:42;;;;;;;9.03;3.80;;;6.90;99.90;;;;;;4397960;28;656982;-65
2022/06/15 01:50:31;;;;;;;8.67;3.90;;;6.80;99.90;;;;;;4422803;28;655952;-65
2022/06/15 01:53:20;;;;;;;10.53;4.10;;;6.90;99.90;;;;;;4390729;28;657429;-65
2022/06/15 01:56:09;;;;;;;10.40;3.60;;;7.00;99.90;;;;;;4392013;28;658766;-65
2022/06/15 01:58:58;;;;;;;6.50;3.50;;;6.90;99.90;;;;;;4393150;28;657640;-65
2022/06/15 02:01:50;;;;;;;11.00;3.33;;;6.90;99.90;;;;;;4399855;28;656632;-65
2022/06/15 02:04:44;;;;;;;8.13;3.27;;;7.00;99.90;;;;;;4395909;28;659119;-65
2022/06/15 02:07:34;;;;;;;9.87;3.80;;;7.10;99.90;;;;;;4394077;28;656605;-65
2022/06/15 02:10:25;;;;;;;7.93;3.73;;;7.20;99.90;;;;;;4402920;28;657000;-65
2022/06/15 02:13:13;;;;;;;12.13;4.17;;;7.30;99.90;;;;;;4402338;28;657547;-65
2022/06/15 02:16:01;;;;;;;8.60;4.70;;;7.40;99.90;;;;;;4403714;28;657498;-65
2022/06/15 02:18:48;;;;;;;19.20;4.67;;;7.40;99.90;;;;;;4420364;28;656944;-65
2022/06/15 02:21:38;;;;;;;14.23;4.57;;;7.50;99.90;;;;;;4403679;28;658275;-66
2022/06/15 02:24:25;;;;;;;10.97;4.87;;;7.60;99.90;;;;;;4410175;28;657333;-65
2022/06/15 02:27:12;;;;;;;15.20;5.27;;;7.60;99.90;;;;;;4419452;28;658300;-65
2022/06/15 02:30:02;;;;;;;12.07;5.03;;;7.70;99.90;;;;;;4420091;28;657698;-65
2022/06/15 02:32:49;;;;;;;13.97;5.30;;;7.80;99.90;;;;;;4399492;28;657591;-65
2022/06/15 02:35:37;;;;;;;12.60;4.83;;;7.80;99.90;;;;;;4403138;28;657965;-65
2022/06/15 02:38:25;;;;;;;9.60;4.83;;;7.80;99.90;;;;;;4419504;28;657476;-66
2022/06/15 02:41:12;;;;;;;15.53;5.40;;;7.90;99.90;;;;;;4406589;28;657502;-66
2022/06/15 02:44:00;;;;;;;10.03;4.43;;;8.00;99.90;;;;;;4424812;28;657739;-66
2022/06/15 02:46:48;;;;;;;14.57;5.87;;;8.00;99.90;;;;;;4417345;28;658650;-66
2022/06/15 02:49:35;;;;;;;13.20;5.93;;;8.10;99.90;;;;;;4402539;28;657599;-65
2022/06/15 02:52:23;;;;;;;13.87;5.27;;;8.20;99.90;;;;;;4424577;28;658588;-65
2022/06/15 02:55:12;;;;;;;13.90;5.00;;;8.30;99.90;;;;;;4399753;28;657951;-65
2022/06/15 02:58:03;;;;;;;9.97;5.27;;;8.40;99.90;;;;;;4420570;28;657421;-66
2022/06/15 03:00:51;;;;;;;13.10;5.00;;;8.40;99.90;;;;;;4379975;28;656483;-66
2022/06/15 03:03:38;;;;;;;9.27;5.07;;;8.40;99.90;;;;;;4421553;28;658055;-66
2022/06/15 03:06:27;;;;;;;8.87;4.70;;;8.50;99.90;;;;;;4398054;28;656714;-66
2022/06/15 03:09:14;;;;;;;12.90;5.20;;;8.50;99.90;;;;;;4425356;28;656777;-66
2022/06/15 03:12:03;;;;;;;8.70;5.30;;;8.60;99.90;;;;;;4406638;28;658562;-65
2022/06/15 03:14:50;;;;;;;12.73;4.87;;;8.70;99.90;;;;;;4398837;28;657052;-66
2022/06/15 03:17:37;;;;;;;10.40;4.83;;;8.70;99.90;;;;;;4421046;28;659028;-65
2022/06/15 03:20:26;;;;;;;8.77;4.93;;;8.80;99.90;;;;;;4422639;28;657217;-66
2022/06/15 03:23:13;;;;;;;13.30;4.67;;;8.80;99.90;;;;;;4425072;28;657069;-66
2022/06/15 03:26:01;;;;;;;10.23;4.90;;;8.90;99.90;;;;;;4399625;28;657649;-66
2022/06/15 03:28:50;;;;;;;8.90;4.90;;;9.00;99.90;;;;;;4424201;28;658815;-66
2022/06/15 03:31:37;;;;;;;8.00;4.57;;;9.10;99.90;;;;;;4398279;28;657726;-66
2022/06/15 03:34:24;;;;;;;11.60;5.37;;;9.20;99.90;;;;;;4419513;28;656302;-66
2022/06/15 03:37:11;;;;;;;8.73;4.80;;;9.20;99.90;;;;;;4409808;28;657631;-66
2022/06/15 03:39:59;;;;;;;12.57;5.50;;;9.20;99.90;;;;;;4426359;28;657524;-66
2022/06/15 03:42:46;;;;;;;18.13;5.30;;;9.20;99.90;;;;;;4397688;28;657531;-66
2022/06/15 03:45:34;;;;;;;15.00;6.18;;;9.20;99.90;;;;;;4426032;28;658460;-66
2022/06/15 03:48:21;;;;;;;19.83;6.13;;;9.30;99.90;;;;;;4401207;28;657836;-66
2022/06/15 03:51:08;;;;;;;13.20;5.03;;;9.30;99.90;;;;;;4422968;28;657586;-66
2022/06/15 03:53:56;;;;;;;9.63;5.60;;;9.30;99.90;;;;;;4405611;28;657482;-66
2022/06/15 03:56:44;;;;;;;12.43;5.77;;;9.20;99.90;;;;;;4425468;28;656203;-66
2022/06/15 03:59:31;;;;;;;9.97;4.73;;;9.20;99.90;;;;;;4407193;28;657740;-66
2022/06/15 04:02:19;;;;;;;11.67;5.47;;;9.30;99.90;;;;;;4417731;28;657940;-66
2022/06/15 04:05:07;;;;;;;11.53;5.43;;;9.40;99.90;;;;;;4390896;28;659205;-66
2022/06/15 04:11:00;;;;;;;11.30;4.30;;;9.40;99.90;;;;;;4383721;28;657527;-66
2022/06/15 04:13:47;;;;;;;9.43;4.47;;;9.30;99.90;;;;;;4428260;28;657735;-66
2022/06/15 04:16:35;;;;;;;14.07;4.70;;;9.30;99.90;;;;;;4418594;28;657024;-66
2022/06/15 04:19:24;;;;;;;12.10;4.43;;;9.30;99.90;;;;;;4409410;28;658464;-66
2022/06/15 04:22:11;;;;;;;11.47;5.03;;;9.30;99.90;;;;;;4408274;28;657802;-66
2022/06/15 04:24:58;;;;;;;13.33;4.67;;;9.30;99.90;;;;;;4415213;28;658554;-66
2022/06/15 04:27:46;;;;;;;11.20;4.90;;;9.30;99.90;;;;;;4398997;28;657500;-66
2022/06/15 04:30:33;;;;;;;12.37;5.07;;;9.30;99.90;;;;;;4420361;28;658113;-66
2022/06/15 04:33:23;;;;;;;11.00;5.17;;;9.40;99.90;;;;;;4402098;28;658297;-66
2022/06/15 04:36:12;;;;;;;12.97;5.27;;;9.50;99.90;;;;;;4407658;28;657648;-66
2022/06/15 04:38:59;;;;;;;8.23;4.43;;;9.60;99.90;;;;;;4423582;28;657804;-66
2022/06/15 04:41:46;;;;;;;10.90;4.77;;;9.70;99.90;;;;;;4396873;28;656592;-66
2022/06/15 04:44:33;;;;;;;16.27;4.57;;;9.90;99.90;;;;;;4428116;28;658499;-66
2022/06/15 04:47:20;;;;;;;10.47;4.63;;;10.00;99.90;;;;;;4399927;28;657896;-66
2022/06/15 04:50:08;;;;;;;18.67;5.00;;;10.10;99.90;;;;;;4423024;28;659311;-66
2022/06/15 04:52:57;;;;;;;7.67;3.93;;;10.30;99.90;;;;;;4396310;28;658364;-66
2022/06/15 04:55:44;;;;;;;10.20;4.33;;;10.50;99.90;;;;;;4416324;28;657703;-66
2022/06/15 04:58:31;;;;;;;11.63;4.07;;;10.70;99.90;;;;;;4401348;28;660129;-66
2022/06/15 05:01:18;;;;;;;7.80;3.63;;;10.90;99.90;;;;;;4420707;28;659313;-66
2022/06/15 05:04:06;;;;;;;7.30;3.30;;;11.10;99.90;;;;;;4404599;28;658675;-66
2022/06/15 05:06:53;;;;;;;8.90;3.55;;;11.30;99.90;;;;;;4421306;28;658423;-66
2022/06/15 05:09:47;;;;;;;8.53;3.60;;;11.50;99.90;;;;;;4404907;28;657291;-66
2022/06/15 05:12:34;;;;;;;9.50;3.10;;;11.80;99.90;;;;;;4399759;28;658060;-66
2022/06/15 05:15:21;;;;;;;6.43;3.07;;;12.00;99.90;;;;;;4403274;28;657941;-66
2022/06/15 05:18:08;;;;;;;9.03;3.00;;;12.20;99.90;;;;;;4429150;28;658572;-66
2022/06/15 05:20:55;;;;;;;8.93;2.70;;;12.40;99.90;;;;;;4403511;28;657666;-66
2022/06/15 05:23:42;;;;;;;10.07;2.63;;;12.50;99.90;;;;;;4422467;28;658781;-66
2022/06/15 05:26:32;;;;;;;9.53;2.97;;;12.60;99.90;;;;;;4421743;28;658633;-66
2022/06/15 05:29:19;;;;;;;9.23;2.67;;;12.80;99.90;;;;;;4428253;28;657331;-66
2022/06/15 05:32:07;;;;;;;8.93;2.60;;;13.00;99.90;;;;;;4404398;28;657391;-66
2022/06/15 05:34:55;;;;;;;10.40;2.70;;;13.10;99.90;;;;;;4423546;28;657366;-66
2022/06/15 05:37:42;;;;;;;7.20;2.17;;;13.30;99.90;;;;;;4389518;28;658956;-66
2022/06/15 05:40:29;;;;;;;10.20;2.10;;;13.40;99.90;;;;;;4425516;28;658357;-66
2022/06/15 05:43:17;;;;;;;8.80;2.33;;;13.50;99.90;;;;;;4399245;28;658694;-66
2022/06/15 05:46:15;;;;;;;7.60;2.20;;;13.60;99.90;;;;;;4419405;28;658002;-66
2022/06/15 05:49:03;;;;;;;4.65;1.90;;;13.80;99.90;;;;;;4362151;28;658294;-66
2022/06/15 05:51:51;;;;;;;6.93;2.47;;;13.90;99.90;;;;;;4392518;28;657498;-66
2022/06/15 05:54:38;;;;;;;8.30;2.30;;;14.00;99.90;;;;;;4420373;28;658321;-66
2022/06/15 05:57:26;;;;;;;6.67;2.40;;;14.10;99.90;;;;;;4410838;28;657509;-65
2022/06/15 06:00:18;;;;;;;7.57;2.20;;;14.30;99.90;;;;;;4413571;28;658609;-66
2022/06/15 06:03:05;;;;;;;7.57;2.27;;;14.20;99.90;;;;;;4393308;28;657598;-66
2022/06/15 06:05:52;;;;;;;10.83;3.20;;;14.40;97.40;;;;;;4420836;28;658162;-66
2022/06/15 06:08:39;;;;;;;11.47;2.37;;;14.40;97.80;;;;;;4405161;28;659027;-66
2022/06/15 06:11:26;;;;;;;12.50;2.77;;;14.70;99.90;;;;;;4407863;28;658687;-66
2022/06/15 06:14:14;;;;;;;7.17;2.23;;;14.70;97.60;;;;;;4417732;28;658312;-66
2022/06/15 06:17:02;;;;;;;8.17;2.20;;;14.60;90.00;;;;;;4393436;28;657504;-66
2022/06/15 06:19:49;;;;;;;6.57;2.37;;;14.70;90.40;;;;;;4415877;28;657756;-66
2022/06/15 06:22:36;;;;;;;7.83;2.27;;;14.80;94.30;;;;;;4401303;28;657828;-66
2022/06/15 06:25:23;;;;;;;8.67;2.57;;;14.90;91.80;;;;;;4414987;28;658454;-66
2022/06/15 06:28:15;;;;;;;9.90;2.47;;;15.00;94.90;;;;;;4400462;28;657637;-66
2022/06/15 06:31:07;;;;;;;13.07;2.40;;;15.00;91.20;;;;;;4389972;28;658294;-66
2022/06/15 06:33:56;;;;;;;9.83;1.90;;;14.90;86.80;;;;;;4389881;28;658524;-66
2022/06/15 06:36:44;;;;;;;7.83;1.70;;;15.00;91.40;;;;;;4397854;28;657713;-66
2022/06/15 06:39:31;;;;;;;9.63;2.47;;;15.30;92.80;;;;;;4395809;28;657483;-66
2022/06/15 06:42:19;;;;;;;8.63;2.17;;;15.20;89.20;;;;;;4421352;28;657123;-66
2022/06/15 06:45:06;;;;;;;12.43;2.60;;;15.10;84.50;;;;;;4401706;28;657661;-66
2022/06/15 06:47:56;;;;;;;6.40;2.17;;;15.50;91.80;;;;;;4415407;28;659418;-66
2022/06/15 06:50:45;;;;;;;7.30;2.17;;;15.60;86.90;;;;;;4395124;28;657921;-66
2022/06/15 06:53:32;;;;;;;12.37;2.87;;;15.60;88.00;;;;;;4395418;28;659085;-66
2022/06/15 06:56:19;;;;;;;11.80;2.53;;;15.70;88.20;;;;;;4412584;28;658377;-65
2022/06/15 06:59:07;;;;;;;9.27;2.20;;;15.60;85.40;;;;;;4390290;28;659015;-66
2022/06/15 07:01:54;;;;;;;9.37;2.37;;;15.70;84.90;;;;;;4413522;28;657184;-66
2022/06/15 07:04:41;;;;;;;6.60;2.63;;;15.70;85.90;;;;;;4389630;28;657850;-66
2022/06/15 07:07:32;;;;;;;6.63;2.33;;;15.80;81.90;;;;;;4419071;28;657791;-66
2022/06/15 07:10:20;;;;;;;9.67;2.57;;;16.00;88.30;;;;;;4390746;28;657400;-66
2022/06/15 07:13:07;;;;;;;7.90;2.33;;;16.10;82.30;;;;;;4417518;28;658544;-66
2022/06/15 07:15:54;;;;;;;11.00;2.60;;;16.50;89.40;;;;;;4412463;28;657415;-66
2022/06/15 07:18:43;;;;;;;13.53;2.43;;;16.70;82.10;;;;;;4390674;28;659445;-66
2022/06/15 07:21:30;;;;;;;9.00;2.33;;;16.50;80.20;;;;;;4411608;28;659328;-66
2022/06/15 07:24:21;;;;;;;12.30;2.23;;;16.50;80.40;;;;;;4420214;28;657834;-66
2022/06/15 07:27:08;;;;;;;11.13;2.80;;;16.60;80.60;;;;;;4386309;28;659377;-65
2022/06/15 07:29:58;;;;;;;9.60;2.40;;;16.70;78.90;;;;;;4393780;28;659039;-66
2022/06/15 07:32:45;;;;;;;8.13;2.40;;;17.30;87.50;;;;;;4396884;28;658718;-65
2022/06/15 07:35:33;;;;;;;7.03;2.40;;;17.30;77.40;;;;;;4427401;28;658378;-65
2022/06/15 07:38:20;;;;;;;4.57;2.40;;;16.90;76.50;;;;;;4396948;28;658057;-66
2022/06/15 07:41:09;;;;;;;16.40;2.43;;;17.10;82.00;;;;;;4424947;28;658624;-65
2022/06/15 07:43:56;;;;;;;6.97;2.57;;;16.70;76.10;;;;;;4402562;28;658717;-66
2022/06/15 07:46:43;;;;;;;9.07;2.20;;;17.00;84.70;;;;;;4430705;28;658323;-65
2022/06/15 07:52:37;;;;;;;12.70;2.20;;;17.10;78.90;;;;;;4377699;28;658449;-66
2022/06/15 07:55:25;;;;;;;12.07;2.20;;;17.60;85.40;;;;;;4417021;28;658998;-66
2022/06/15 07:58:15;;;;;;;5.83;1.63;;;17.80;79.00;;;;;;4402930;28;659804;-65
2022/06/15 08:01:02;;;;;;;9.87;1.93;;;17.80;71.60;;;;;;4409509;28;658912;-66
2022/06/15 08:03:49;;;;;;;9.13;1.77;;;17.70;74.40;;;;;;4413585;28;657546;-66
2022/06/15 08:06:37;;;;;;;8.80;2.37;;;18.00;72.50;;;;;;4406042;28;657503;-66
2022/06/15 08:09:24;;;;;;;5.93;1.97;;;17.60;72.00;;;;;;4418521;28;657687;-66
2022/06/15 08:12:16;;;;;;;7.60;1.90;;;17.80;79.30;;;;;;4400273;28;657603;-66
2022/06/15 08:15:05;;;;;;;7.10;2.20;;;18.00;79.40;;;;;;4393992;28;657824;-66
2022/06/15 08:17:53;;;;;;;6.30;1.80;;;18.10;72.60;;;;;;4397031;28;658300;-66
2022/06/15 08:20:44;;;;;;;11.27;1.97;;;17.90;70.80;;;;;;4406419;28;657666;-67
2022/06/15 08:23:32;;;;;;;9.83;2.20;;;18.30;75.70;;;;;;4400707;28;658302;-67
2022/06/15 08:26:21;;;;;;;9.43;2.00;;;18.50;70.20;;;;;;4421287;28;657870;-67
2022/06/15 08:29:10;;;;;;;7.67;1.80;;;19.10;80.80;;;;;;4392065;28;658774;-66
2022/06/15 08:31:59;;;;;;;9.07;2.30;;;18.40;71.90;;;;;;4389731;28;658854;-66
2022/06/15 08:34:46;;;;;;;7.03;2.73;;;18.50;71.30;;;;;;4386346;28;658225;-66
2022/06/15 08:37:33;;;;;;;9.75;2.10;;;17.60;68.80;;;;;;4414244;28;658736;-66
2022/06/15 08:40:20;;;;;;;4.93;1.60;;;17.80;69.90;;;;;;4396956;28;658266;-66
2022/06/15 08:43:09;;;;;;;8.57;2.07;;;18.00;72.00;;;;;;4423053;28;657700;-66
2022/06/15 08:45:58;;;;;;;9.83;2.00;;;18.00;74.00;;;;;;4402989;28;657544;-66
2022/06/15 08:48:53;;;;;;;10.47;2.23;;;18.60;68.30;;;;;;4411671;28;657647;-66
2022/06/15 08:51:42;;;;;;;10.43;1.83;;;18.90;71.70;;;;;;4401179;28;658774;-67
2022/06/15 08:54:30;;;;;;;8.17;1.90;;;18.50;67.00;;;;;;4428124;28;658285;-67
2022/06/15 08:57:19;;;;;;;8.53;1.90;;;18.00;68.20;;;;;;4406155;28;658098;-67
2022/06/15 09:00:09;;;;;;;11.33;2.00;;;18.80;70.40;;;;;;4397246;28;657596;-67
2022/06/15 09:03:06;;;;;;;8.27;2.00;;;18.90;73.00;;;;;;4396060;28;659056;-67
2022/06/15 09:06:03;;;;;;;5.30;1.90;;;19.60;66.00;;;;;;4391872;28;658077;-67
2022/06/15 09:09:03;;;;;;;7.00;1.77;;;19.60;67.00;;;;;;4382899;28;657335;-67
2022/06/15 09:15:17;;;;;;;7.03;2.10;;;19.20;69.90;;;;;;4398889;28;657864;-67
2022/06/15 09:18:08;;;;;;;4.73;1.70;;;19.00;68.50;;;;;;4405358;28;657596;-67
2022/06/15 09:20:59;;;;;;;5.47;1.70;;;19.20;70.20;;;;;;4377982;28;657609;-67
2022/06/15 09:23:49;;;;;;;8.60;2.13;;;19.80;68.70;;;;;;4401790;28;657708;-67
2022/06/15 09:26:38;;;;;;;7.73;2.07;;;19.20;64.50;;;;;;4397320;28;658060;-67
2022/06/15 09:29:26;;;;;;;8.40;1.97;;;19.00;67.50;;;;;;4415212;28;658116;-67
2022/06/15 09:32:17;;;;;;;9.97;1.93;;;19.30;67.70;;;;;;4424798;28;658166;-67
2022/06/15 09:35:06;;;;;;;8.17;2.20;;;19.70;68.80;;;;;;4398102;28;658273;-67
2022/06/15 09:37:55;;;;;;;8.70;2.30;;;19.30;65.80;;;;;;4391838;28;657783;-67
2022/06/15 09:40:51;;;;;;;11.33;2.63;;;18.80;72.00;;;;;;4395182;28;658590;-67
2022/06/15 09:43:41;;;;;;;5.20;2.00;;;18.50;69.10;;;;;;4394011;28;658870;-67
2022/06/15 09:46:32;;;;;;;9.27;1.97;;;20.00;74.20;;;;;;4396410;28;658554;-67
2022/06/15 09:49:32;;;;;;;5.90;2.30;;;19.50;66.10;;;;;;4397610;28;658510;-67
2022/06/15 09:52:25;;;;;;;6.97;2.17;;;19.80;64.80;;;;;;4397268;28;657688;-67
2022/06/15 09:55:16;;;;;;;4.80;1.97;;;19.40;69.70;;;;;;4401546;28;658169;-67
2022/06/15 09:58:03;;;;;;;8.50;2.20;;;19.20;65.70;;;;;;4393804;28;658843;-67
2022/06/15 10:00:50;;;;;;;7.73;2.13;;;19.50;71.70;;;;;;4404556;28;657623;-67
2022/06/15 10:03:38;;;;;;;5.17;1.93;;;20.60;61.30;;;;;;4428776;28;658721;-67
2022/06/15 10:06:29;;;;;;;8.03;2.03;;;21.00;66.00;;;;;;4395236;28;658344;-67
2022/06/15 10:09:18;;;;;;;9.67;2.03;;;20.50;64.90;;;;;;4407348;28;658382;-67
2022/06/15 10:15:50;;;;;;;9.13;2.17;;;20.20;67.60;;;;;;4406098;28;658333;-67
2022/06/15 10:18:38;;;;;;;5.27;2.10;;;20.50;61.50;;;;;;4377916;28;657729;-67
2022/06/15 10:21:26;;;;;;;7.77;1.80;;;21.30;68.70;;;;;;4407338;28;657461;-67
2022/06/15 10:24:21;;;;;;;12.07;2.37;;;21.30;64.50;;;;;;4419786;28;657916;-67
2022/06/15 10:27:30;;;;;;;6.37;2.20;;;22.10;70.30;;;;;;4391506;28;659188;-67
2022/06/15 10:30:19;;;;;;;8.17;2.27;;;21.30;63.90;;;;;;4393494;28;657850;-67
2022/06/15 10:33:14;;;;;;;9.17;2.20;;;22.40;66.50;;;;;;4402161;28;659117;-67
2022/06/15 10:36:01;;;;;;;11.00;2.37;;;21.40;59.30;;;;;;4375503;28;657775;-67
2022/06/15 10:38:50;;;;;;;8.10;2.30;;;22.40;60.90;;;;;;4405797;28;659252;-67
2022/06/15 10:41:48;;;;;;;9.10;2.33;;;21.70;66.40;;;;;;4404183;28;659123;-67
2022/06/15 10:44:39;;;;;;;4.10;2.10;;;20.70;63.30;;;;;;4393640;28;658736;-67
2022/06/15 10:47:27;;;;;;;6.80;2.30;;;20.20;67.80;;;;;;4418797;28;657744;-67
2022/06/15 10:50:22;;;;;;;5.53;1.90;;;20.00;62.30;;;;;;4421065;28;657502;-67
2022/06/15 10:53:26;;;;;;;8.63;2.30;;;19.60;63.60;;;;;;4398936;28;657754;-67
2022/06/15 11:02:37;;;;;;;6.37;1.90;;;20.80;62.70;;;;;;4368665;28;659158;-67
2022/06/15 11:05:25;;;;;;;5.20;2.13;;;21.60;62.50;;;;;;4389738;28;657344;-66
2022/06/15 11:08:14;;;;;;;7.00;2.50;;;20.50;60.70;;;;;;4392839;28;658413;-67
2022/06/15 11:11:10;;;;;;;6.43;2.00;;;21.10;63.10;;;;;;4395881;28;657644;-66
2022/06/15 11:13:58;;;;;;;9.43;2.20;;;20.80;62.80;;;;;;4375211;28;657959;-67
2022/06/15 11:19:56;;;;;;;9.93;2.37;;;21.80;60.60;;;;;;4389984;28;657624;-67
2022/06/15 11:22:43;;;;;;;9.27;2.47;;;21.80;59.90;;;;;;4389045;28;658774;-67
2022/06/15 11:25:36;;;;;;;6.10;2.00;;;21.40;60.50;;;;;;4401300;28;657858;-67
2022/06/15 11:28:26;;;;;;;6.37;2.23;;;21.90;60.00;;;;;;4389683;28;657602;-67
2022/06/15 11:31:15;;;;;;;6.23;1.90;;;22.30;56.60;;;;;;4389968;28;658457;-67
2022/06/15 11:34:03;;;;;;;7.93;2.33;;;21.70;58.90;;;;;;4392504;28;658780;-67
2022/06/15 11:36:52;;;;;;;9.50;2.30;;;21.60;59.90;;;;;;4393120;28;657429;-67
2022/06/15 11:39:41;;;;;;;5.53;1.87;;;21.80;59.80;;;;;;4392461;28;657442;-67
2022/06/15 11:42:28;;;;;;;6.47;2.33;;;22.50;60.50;;;;;;4390637;28;658132;-66
2022/06/15 11:45:16;;;;;;;9.60;2.07;;;22.50;60.80;;;;;;4393726;28;658084;-67
2022/06/15 11:48:09;;;;;;;7.77;2.13;;;23.60;62.20;;;;;;4418867;28;658992;-65
2022/06/15 11:50:58;;;;;;;3.93;2.03;;;23.60;60.00;;;;;;4381130;28;658165;-65
2022/06/15 11:54:09;;;;;;;8.23;1.93;;;23.20;55.70;;;;;;4397788;28;657907;-65
2022/06/15 11:57:00;;;;;;;7.23;1.90;;;22.30;58.20;;;;;;4376883;28;657869;-65
2022/06/15 11:59:49;;;;;;;7.67;1.97;;;21.80;58.60;;;;;;4396229;28;658866;-65
2022/06/15 12:02:44;;;;;;;6.10;1.47;;;21.80;58.30;;;;;;4416736;28;657749;-65
2022/06/15 12:05:35;;;;;;;4.30;1.90;;;21.30;59.00;;;;;;4416154;28;657512;-67
2022/06/15 12:08:28;;;;;;;8.00;1.90;;;21.40;60.50;;;;;;4417745;28;658380;-67
2022/06/15 12:14:27;;;;;;;5.53;1.97;;;23.00;53.90;;;;;;4405042;28;658625;-67
2022/06/15 12:17:16;;;;;;;7.07;1.90;;;22.70;60.20;;;;;;4447603;28;657862;-67
2022/06/15 12:20:07;;;;;;;6.47;2.10;;;22.10;58.40;;;;;;4422428;28;657976;-67
2022/06/15 12:22:57;;;;;;;5.67;1.80;;;22.10;55.40;;;;;;4415752;28;657785;-67
2022/06/15 12:25:49;;;;;;;8.07;1.83;;;21.90;56.60;;;;;;4417174;28;657911;-67
2022/06/15 12:28:40;;;;;;;8.70;2.63;;;22.10;56.40;;;;;;4417838;28;657610;-67
2022/06/15 12:31:30;;;;;;;8.63;2.47;;;22.40;57.00;;;;;;4413037;28;658456;-67
2022/06/15 12:34:20;;;;;;;6.20;2.10;;;22.70;59.60;;;;;;4420096;28;657672;-67
2022/06/15 12:37:10;;;;;;;6.90;2.10;;;22.60;57.30;;;;;;4422106;28;658341;-67
2022/06/15 12:40:10;;;;;;;6.17;1.80;;;22.30;57.10;;;;;;4421709;28;658526;-67
2022/06/15 12:43:03;;;;;;;6.43;1.87;;;22.30;55.40;;;;;;4412895;28;657995;-67
2022/06/15 12:45:53;;;;;;;4.90;1.92;;;22.60;57.30;;;;;;4395691;28;657848;-67
2022/06/15 12:48:51;;;;;;;7.83;1.70;;;22.00;57.50;;;;;;4424532;28;657737;-67
2022/06/15 12:51:40;;;;;;;5.47;2.10;;;22.10;57.50;;;;;;4421180;28;658026;-67
2022/06/15 12:54:29;;;;;;;6.20;2.00;;;22.20;58.90;;;;;;4423860;28;657700;-67
2022/06/15 12:57:20;;;;;;;7.30;2.03;;;22.20;58.00;;;;;;4417741;28;658230;-67
2022/06/15 13:00:14;;;;;;;3.67;1.90;;;23.50;56.10;;;;;;4415289;28;658152;-66
2022/06/15 13:03:10;;;;;;;6.17;1.93;;;23.80;57.80;;;;;;4398261;28;658030;-66
2022/06/15 13:06:25;;;;;;;6.67;2.37;;;23.20;57.30;;;;;;4399059;28;657898;-66
2022/06/15 13:09:20;;;;;;;4.43;1.90;;;23.40;56.50;;;;;;4395107;28;658915;-66
2022/06/15 13:12:08;;;;;;;5.50;1.65;;;23.50;56.00;;;;;;4423346;28;658395;-66
2022/06/15 13:14:56;;;;;;;4.85;1.75;;;23.30;56.60;;;;;;4449467;28;657396;-66
2022/06/15 13:21:04;;;;;;;4.97;1.87;;;22.70;57.40;;;;;;4928627;27;131343;-65
2022/06/15 13:24:01;;;;;;;7.63;1.90;;;22.50;57.80;;;;;;4407427;28;650628;-65
2022/06/15 13:26:54;;;;;;;4.43;2.20;;;23.10;59.00;;;;;;4429652;28;651409;-66
2022/06/15 13:29:45;;;;;;;4.33;2.00;;;23.70;62.40;;;;;;4407012;28;651006;-66
2022/06/15 13:32:53;;;;;;;6.50;1.83;;;24.20;57.10;;;;;;4433999;28;651448;-65
2022/06/15 13:35:41;;;;;;;6.73;2.33;;;22.90;57.10;;;;;;4409252;28;650494;-66
2022/06/15 13:38:32;;;;;;;8.40;2.03;;;22.80;57.30;;;;;;4414355;28;652975;-66
2022/06/15 13:41:25;;;;;;;7.57;2.10;;;23.10;53.30;;;;;;4415080;28;651173;-65
2022/06/15 13:44:16;;;;;;;2.20;1.53;;;23.20;55.80;;;;;;4405654;28;652523;-65
2022/06/15 13:47:04;;;;;;;11.53;1.53;;;23.30;58.20;;;;;;4409706;28;651952;-65
2022/06/15 13:49:51;;;;;;;5.00;1.80;;;23.30;56.50;;;;;;4409335;28;653644;-65
2022/06/15 13:52:38;;;;;;;6.17;2.10;;;22.70;55.70;;;;;;4422664;28;653186;-66
2022/06/15 13:55:48;;;;;;;4.37;1.50;;;23.20;56.20;;;;;;4393328;28;652852;-65
2022/06/15 13:58:59;;;;;;;6.87;1.90;;;23.00;54.00;;;;;;4378957;28;653230;-66
2022/06/15 14:02:02;;;;;;;7.65;1.77;;;24.30;56.30;;;;;;4398995;28;652630;-65
2022/06/15 14:04:58;;;;;;;9.18;1.65;;;24.20;58.90;;;;;;4393785;28;652865;-65
2022/06/15 14:07:54;;;;;;;3.73;1.83;;;23.50;54.40;;;;;;4375818;28;652397;-65
2022/06/15 14:10:45;;;;;;;4.33;1.90;;;23.00;55.30;;;;;;4398480;28;653036;-65
2022/06/15 14:14:04;;;;;;;3.30;2.00;;;23.20;56.60;;;;;;4393047;28;653749;-66
2022/06/15 14:17:27;;;;;;;6.20;2.10;;;23.40;58.20;;;;;;4382627;28;652610;-65
2022/06/15 14:20:17;;;;;;;3.17;1.80;;;23.40;55.00;;;;;;4399897;28;652741;-65
2022/06/15 14:23:05;;;;;;;4.40;1.77;;;23.40;54.40;;;;;;4394738;28;654026;-65
2022/06/15 14:25:52;;;;;;;6.20;1.80;;;23.60;53.50;;;;;;4396862;28;653569;-65
2022/06/15 14:28:42;;;;;;;8.07;1.80;;;24.10;56.20;;;;;;4415875;28;652961;-65
2022/06/15 14:31:31;;;;;;;5.80;1.63;;;23.30;53.80;;;;;;4403652;28;652845;-65
2022/06/15 14:34:21;;;;;;;7.47;2.00;;;23.40;55.90;;;;;;4413213;28;653317;-66
2022/06/15 14:37:10;;;;;;;6.70;1.80;;;24.00;56.40;;;;;;4392969;28;653134;-66
2022/06/15 14:39:57;;;;;;;6.60;1.98;;;24.10;53.40;;;;;;4379513;28;653968;-66
2022/06/15 14:42:56;;;;;;;5.17;1.80;;;23.90;54.40;;;;;;4409060;28;652633;-66
2022/06/15 14:45:46;;;;;;;8.13;2.40;;;23.80;52.00;;;;;;4380984;28;653308;-66
2022/06/15 14:48:35;;;;;;;6.33;2.17;;;23.50;55.50;;;;;;4385108;28;654276;-66
2022/06/15 14:51:24;;;;;;;7.45;1.80;;;24.20;53.70;;;;;;4381990;28;652972;-66
2022/06/15 14:54:12;;;;;;;7.20;1.97;;;23.60;53.30;;;;;;4389067;28;652467;-66
2022/06/15 14:57:00;;;;;;;5.88;1.70;;;24.20;56.50;;;;;;4416906;28;652554;-66
2022/06/15 14:59:48;;;;;;;10.93;1.83;;;24.10;57.80;;;;;;4413132;28;652029;-66
2022/06/15 15:02:42;;;;;;;5.15;2.28;;;23.80;54.20;;;;;;4383961;28;653716;-66
2022/06/15 15:05:30;;;;;;;7.32;2.28;;;24.30;53.00;;;;;;4389127;28;652640;-66